createdAt,value
2023-01-30T00:01:34.279Z,5.19
2023-01-30T00:04:00.918Z,5.23
2023-01-30T00:06:27.856Z,5.25
2023-01-30T00:08:54.809Z,5.28
2023-01-30T00:11:21.728Z,5.32
2023-01-30T00:13:50.484Z,5.34
2023-01-30T00:16:18.472Z,5.37
2023-01-30T00:18:45.071Z,5.40
2023-01-30T00:21:13.632Z,5.41
2023-01-30T00:23:40.359Z,5.43
2023-01-30T00:26:07.251Z,5.47
2023-01-30T00:28:34.483Z,5.50
2023-01-30T00:31:01.058Z,5.54
2023-01-30T00:33:27.876Z,5.57
2023-01-30T00:35:56.119Z,5.60
2023-01-30T00:38:23.944Z,5.63
2023-01-30T00:40:50.815Z,5.66
2023-01-30T00:43:38.080Z,5.68
2023-01-30T00:46:33.868Z,5.70
2023-01-30T00:49:00.345Z,5.75
2023-01-30T00:51:26.828Z,5.74
2023-01-30T00:53:53.289Z,5.75
2023-01-30T00:56:19.919Z,5.73
2023-01-30T00:58:46.449Z,5.77
2023-01-30T01:01:12.798Z,5.78
2023-01-30T01:03:39.355Z,5.79
2023-01-30T01:06:06.184Z,5.77
2023-01-30T01:08:32.666Z,5.77
2023-01-30T01:10:59.205Z,5.77
2023-01-30T01:13:25.824Z,5.79
2023-01-30T01:15:52.348Z,5.79
2023-01-30T01:18:18.781Z,5.78
2023-01-30T01:20:45.736Z,5.79
2023-01-30T01:23:12.297Z,5.81
2023-01-30T01:25:38.822Z,5.82
2023-01-30T01:28:05.554Z,5.82
2023-01-30T01:30:32.013Z,5.82
2023-01-30T01:32:58.555Z,5.83
2023-01-30T01:35:25.030Z,5.84
2023-01-30T01:37:55.337Z,5.87
2023-01-30T01:40:41.715Z,5.89
2023-01-30T01:43:23.249Z,5.89
2023-01-30T01:45:53.625Z,5.91
2023-01-30T01:48:29.004Z,5.91
2023-01-30T01:51:01.808Z,5.93
2023-01-30T01:53:36.256Z,5.95
2023-01-30T01:56:05.409Z,5.96
2023-01-30T01:58:37.118Z,5.98
2023-01-30T02:01:03.901Z,6.00
2023-01-30T02:03:34.883Z,5.99
2023-01-30T02:06:03.363Z,6.02
2023-01-30T02:08:42.172Z,6.02
2023-01-30T02:11:14.802Z,6.09
2023-01-30T02:13:41.389Z,6.11
2023-01-30T02:16:09.404Z,6.13
2023-01-30T02:18:39.157Z,6.16
2023-01-30T02:21:30.528Z,6.16
2023-01-30T02:24:16.267Z,6.19
2023-01-30T02:26:49.995Z,6.27
2023-01-30T02:29:22.263Z,6.30
2023-01-30T02:32:29.651Z,6.28
2023-01-30T02:35:14.215Z,6.32
2023-01-30T02:38:11.890Z,6.33
2023-01-30T02:40:49.241Z,6.39
2023-01-30T02:44:00.776Z,6.39
2023-01-30T02:46:32.573Z,6.42
2023-01-30T02:49:11.416Z,6.39
2023-01-30T02:51:39.736Z,6.42
2023-01-30T02:54:08.133Z,6.42
2023-01-30T02:56:46.738Z,6.39
2023-01-30T02:59:18.238Z,6.41
2023-01-30T03:01:59.687Z,6.41
2023-01-30T03:04:56.839Z,6.41
2023-01-30T03:07:26.458Z,6.44
2023-01-30T03:10:11.340Z,6.41
2023-01-30T03:12:59.843Z,6.46
2023-01-30T03:15:49.352Z,6.39
2023-01-30T03:18:17.927Z,6.47
2023-01-30T03:20:44.571Z,6.46
2023-01-30T03:23:11.156Z,6.45
2023-01-30T03:25:41.976Z,6.43
2023-01-30T03:28:09.626Z,6.47
2023-01-30T03:30:36.331Z,6.48
2023-01-30T03:33:02.844Z,6.50
2023-01-30T03:35:30.218Z,6.53
2023-01-30T03:37:58.140Z,6.54
2023-01-30T03:40:24.811Z,6.57
2023-01-30T03:42:51.315Z,6.58
2023-01-30T03:45:18.183Z,6.60
2023-01-30T03:47:44.833Z,6.61
2023-01-30T03:50:11.397Z,6.64
2023-01-30T03:52:38.172Z,6.65
2023-01-30T03:55:05.137Z,6.66
2023-01-30T03:57:31.719Z,6.70
2023-01-30T03:59:58.304Z,6.72
2023-01-30T04:02:26.265Z,6.76
2023-01-30T04:04:53.274Z,6.79
2023-01-30T04:07:19.978Z,6.80
2023-01-30T04:09:46.575Z,6.82
2023-01-30T04:12:13.301Z,6.85
2023-01-30T04:14:39.890Z,6.91
2023-01-30T04:17:06.376Z,6.95
2023-01-30T04:19:33.372Z,6.99
2023-01-30T04:21:59.936Z,7.02
2023-01-30T04:24:26.458Z,7.05
2023-01-30T04:26:52.955Z,7.10
2023-01-30T04:29:19.392Z,7.15
2023-01-30T04:31:45.875Z,7.19
2023-01-30T04:34:12.342Z,7.24
2023-01-30T04:36:38.912Z,7.29
2023-01-30T04:39:05.353Z,7.33
2023-01-30T04:41:31.979Z,7.37
2023-01-30T04:46:23.655Z,7.44
2023-01-30T04:48:50.104Z,7.49
2023-01-30T04:51:16.570Z,7.53
2023-01-30T04:53:43.051Z,7.58
2023-01-30T04:56:09.545Z,7.60
2023-01-30T04:58:36.059Z,7.63
2023-01-30T05:01:25.815Z,7.63
2023-01-30T05:03:55.915Z,7.68
2023-01-30T05:06:22.949Z,7.73
2023-01-30T05:08:50.627Z,7.75
2023-01-30T05:11:17.866Z,7.77
2023-01-30T05:13:44.554Z,7.77
2023-01-30T05:16:12.391Z,7.77
2023-01-30T05:18:38.950Z,7.78
2023-01-30T05:21:12.967Z,7.78
2023-01-30T05:23:39.565Z,7.80
2023-01-30T05:26:06.553Z,7.80
2023-01-30T05:28:33.464Z,7.80
2023-01-30T05:31:07.209Z,7.79
2023-01-30T05:33:33.835Z,7.80
2023-01-30T05:36:00.377Z,7.82
2023-01-30T05:38:27.540Z,7.82
2023-01-30T05:41:05.860Z,7.81
2023-01-30T05:43:33.462Z,7.85
2023-01-30T05:46:01.876Z,7.86
2023-01-30T05:48:28.994Z,7.86
2023-01-30T05:50:57.313Z,7.89
2023-01-30T05:53:26.526Z,7.89
2023-01-30T05:56:01.354Z,7.89
2023-01-30T05:58:28.354Z,7.92
2023-01-30T06:00:55.224Z,7.93
2023-01-30T06:03:21.781Z,7.94
2023-01-30T06:05:48.373Z,7.96
2023-01-30T06:08:14.985Z,7.99
2023-01-30T06:10:41.473Z,7.98
2023-01-30T06:13:11.002Z,8.00
2023-01-30T06:15:37.689Z,8.02
2023-01-30T06:18:04.171Z,8.02
2023-01-30T06:20:30.810Z,8.04
2023-01-30T06:22:57.320Z,8.05
2023-01-30T06:25:23.857Z,8.05
2023-01-30T06:27:50.294Z,8.06
2023-01-30T06:30:16.966Z,8.06
2023-01-30T06:33:06.908Z,8.02
2023-01-30T06:35:34.065Z,8.06
2023-01-30T06:38:15.157Z,8.03
2023-01-30T06:40:45.358Z,8.03
2023-01-30T06:43:12.179Z,8.04
2023-01-30T06:45:38.758Z,8.02
2023-01-30T06:48:05.397Z,8.01
2023-01-30T06:50:32.461Z,7.99
2023-01-30T06:53:03.896Z,7.95
2023-01-30T06:55:31.215Z,7.95
2023-01-30T06:58:06.866Z,7.92
2023-01-30T07:00:40.564Z,7.91
2023-01-30T07:03:25.514Z,7.89
2023-01-30T07:05:59.240Z,7.90
2023-01-30T07:08:25.876Z,7.87
2023-01-30T07:10:52.607Z,7.85
2023-01-30T07:13:19.128Z,7.82
2023-01-30T07:15:46.524Z,7.81
2023-01-30T07:18:13.364Z,7.80
2023-01-30T07:20:41.397Z,7.80
2023-01-30T07:23:08.114Z,7.79
2023-01-30T07:25:34.678Z,7.77
2023-01-30T07:28:02.997Z,7.76
2023-01-30T07:30:32.387Z,7.73
2023-01-30T07:33:00.181Z,7.74
2023-01-30T07:35:28.921Z,7.73
2023-01-30T07:37:55.398Z,7.72
2023-01-30T07:40:22.195Z,7.71
2023-01-30T07:43:07.158Z,7.67
2023-01-30T07:45:38.244Z,7.68
2023-01-30T07:48:05.032Z,7.68
2023-01-30T07:50:31.551Z,7.69
2023-01-30T07:52:58.042Z,7.68
2023-01-30T07:55:24.745Z,7.70
2023-01-30T07:57:51.197Z,7.69
2023-01-30T08:00:18.521Z,7.69
2023-01-30T08:02:45.279Z,7.68
2023-01-30T08:05:11.779Z,7.68
2023-01-30T08:07:38.216Z,7.68
2023-01-30T08:10:05.110Z,7.67
2023-01-30T08:12:31.590Z,7.65
2023-01-30T08:14:58.055Z,7.62
2023-01-30T08:17:24.567Z,7.60
2023-01-30T08:19:51.073Z,7.59
2023-01-30T08:22:17.540Z,7.58
2023-01-30T08:24:44.153Z,7.59
2023-01-30T08:27:10.813Z,7.60
2023-01-30T08:29:37.291Z,7.61
2023-01-30T08:32:03.921Z,7.62
2023-01-30T08:34:30.304Z,7.63
2023-01-30T08:36:56.731Z,7.63
2023-01-30T08:39:23.287Z,7.65
2023-01-30T08:41:49.986Z,7.66
2023-01-30T08:44:16.493Z,7.67
2023-01-30T08:46:43.106Z,7.71
2023-01-30T08:49:10.381Z,7.72
2023-01-30T08:51:36.909Z,7.73
2023-01-30T08:54:03.357Z,7.76
2023-01-30T08:56:29.798Z,7.77
2023-01-30T08:58:56.328Z,7.77
2023-01-30T09:01:22.798Z,7.79
2023-01-30T09:03:49.207Z,7.81
2023-01-30T09:06:15.758Z,7.81
2023-01-30T09:08:42.518Z,7.80
2023-01-30T09:11:11.082Z,7.79
2023-01-30T09:13:40.931Z,7.79
2023-01-30T09:16:07.320Z,7.80
2023-01-30T09:18:33.697Z,7.80
2023-01-30T09:21:04.898Z,7.79
2023-01-30T09:23:31.868Z,7.78
2023-01-30T09:25:58.325Z,7.78
2023-01-30T09:28:24.829Z,7.77
2023-01-30T09:30:51.409Z,7.77
2023-01-30T09:33:20.394Z,7.77
2023-01-30T09:35:48.557Z,7.78
2023-01-30T09:38:15.432Z,7.78
2023-01-30T09:40:54.489Z,7.75
2023-01-30T09:43:38.040Z,7.73
2023-01-30T09:46:23.728Z,7.74
2023-01-30T09:49:01.023Z,7.77
2023-01-30T09:51:40.709Z,7.75
2023-01-30T09:54:24.256Z,7.76
2023-01-30T09:57:22.092Z,7.77
2023-01-30T10:00:17.347Z,7.78
2023-01-30T10:03:08.588Z,7.78
2023-01-30T10:05:44.261Z,7.82
2023-01-30T10:08:19.834Z,7.81
2023-01-30T10:11:17.965Z,7.81
2023-01-30T10:14:05.657Z,7.85
2023-01-30T10:17:04.605Z,7.85
2023-01-30T10:19:50.197Z,7.88
2023-01-30T10:22:41.500Z,7.90
2023-01-30T10:25:23.165Z,7.97
2023-01-30T10:28:01.217Z,7.96
2023-01-30T10:30:27.980Z,8.00
2023-01-30T10:33:03.305Z,8.01
2023-01-30T10:35:35.955Z,8.04
2023-01-30T10:38:26.396Z,8.05
2023-01-30T10:41:01.214Z,8.09
2023-01-30T10:46:50.956Z,8.15
2023-01-30T10:49:39.709Z,8.16
2023-01-30T10:52:29.621Z,8.14
2023-01-30T10:55:02.348Z,8.16
2023-01-30T10:57:59.688Z,8.18
2023-01-30T11:00:57.645Z,8.19
2023-01-30T11:03:37.743Z,8.24
2023-01-30T11:06:23.892Z,8.26
2023-01-30T11:08:51.673Z,8.31
2023-01-30T11:11:42.372Z,8.27
2023-01-30T11:14:11.345Z,8.32
2023-01-30T11:16:48.284Z,8.30
2023-01-30T11:19:21.173Z,8.36
2023-01-30T11:21:51.786Z,8.42
2023-01-30T11:24:40.896Z,8.50
2023-01-30T11:27:29.180Z,8.61
2023-01-30T11:30:04.740Z,8.78
2023-01-30T11:32:31.322Z,8.93
2023-01-30T11:35:07.122Z,9.11
2023-01-30T11:37:36.567Z,9.34
2023-01-30T11:40:18.568Z,9.52
2023-01-30T11:42:49.818Z,9.74
2023-01-30T11:45:18.556Z,9.85
2023-01-30T11:47:57.639Z,9.86
2023-01-30T11:50:34.870Z,9.90
2023-01-30T11:53:05.176Z,9.90
2023-01-30T11:55:35.372Z,9.91
2023-01-30T11:58:05.876Z,9.91
2023-01-30T12:00:39.669Z,9.94
2023-01-30T12:03:12.074Z,10.00
2023-01-30T12:05:42.556Z,10.03
2023-01-30T12:08:12.150Z,10.00
2023-01-30T12:10:43.854Z,9.94
2023-01-30T12:13:21.653Z,9.83
2023-01-30T12:15:55.347Z,9.74
2023-01-30T12:18:37.330Z,9.59
2023-01-30T12:21:24.452Z,9.45
2023-01-30T12:24:06.504Z,9.35
2023-01-30T12:27:05.121Z,9.22
2023-01-30T12:29:41.030Z,9.13
2023-01-30T12:32:19.798Z,9.08
2023-01-30T12:34:47.957Z,9.12
2023-01-30T12:37:20.258Z,9.23
2023-01-30T12:40:26.204Z,9.39
2023-01-30T12:43:01.672Z,9.67
2023-01-30T12:45:34.619Z,9.94
2023-01-30T12:48:04.099Z,10.20
2023-01-30T12:50:47.242Z,10.31
2023-01-30T12:53:19.663Z,10.38
2023-01-30T12:56:01.645Z,10.38
2023-01-30T12:58:37.012Z,10.25
2023-01-30T13:01:28.092Z,10.12
2023-01-30T13:04:13.891Z,9.88
2023-01-30T13:06:43.478Z,9.70
2023-01-30T13:09:31.566Z,9.45
2023-01-30T13:12:27.639Z,9.25
2023-01-30T13:14:57.167Z,9.11
2023-01-30T13:18:05.196Z,8.96
2023-01-30T13:20:34.490Z,8.90
2023-01-30T13:23:22.026Z,8.78
2023-01-30T13:26:04.930Z,8.71
2023-01-30T13:29:14.700Z,8.62
2023-01-30T13:31:50.805Z,8.59
2023-01-30T13:34:38.656Z,8.59
2023-01-30T13:37:14.079Z,8.69
2023-01-30T13:40:21.505Z,8.82
2023-01-30T13:43:03.060Z,9.02
2023-01-30T13:45:33.259Z,9.20
2023-01-30T13:48:30.884Z,9.35
2023-01-30T13:51:28.398Z,9.54
2023-01-30T13:54:09.151Z,9.71
2023-01-30T13:57:03.618Z,9.87
2023-01-30T13:59:36.127Z,10.00
2023-01-30T14:02:10.086Z,10.11
2023-01-30T14:04:39.630Z,10.20
2023-01-30T14:07:11.904Z,10.24
2023-01-30T14:10:09.445Z,10.25
2023-01-30T14:12:40.294Z,10.23
2023-01-30T14:15:12.807Z,10.10
2023-01-30T14:17:56.368Z,10.00
2023-01-30T14:20:27.753Z,9.87
2023-01-30T14:23:21.979Z,9.68
2023-01-30T14:25:56.595Z,9.58
2023-01-30T14:28:29.100Z,9.50
2023-01-30T14:31:01.281Z,9.37
2023-01-30T14:33:31.933Z,9.31
2023-01-30T14:35:58.362Z,9.23
2023-01-30T14:38:32.804Z,9.15
2023-01-30T14:40:59.677Z,9.11
2023-01-30T14:43:41.484Z,9.01
2023-01-30T14:46:20.154Z,8.97
2023-01-30T14:48:56.854Z,8.97
2023-01-30T14:51:32.775Z,8.91
2023-01-30T14:54:14.817Z,8.85
2023-01-30T14:56:57.062Z,8.82
2023-01-30T14:59:29.239Z,8.84
2023-01-30T15:02:13.628Z,8.78
2023-01-30T15:05:03.283Z,8.77
2023-01-30T15:08:24.221Z,8.78
2023-01-30T15:11:15.172Z,8.79
2023-01-30T15:14:12.111Z,8.79
2023-01-30T15:16:38.756Z,8.85
2023-01-30T15:19:23.595Z,8.86
2023-01-30T15:22:13.787Z,8.82
2023-01-30T15:24:46.504Z,8.89
2023-01-30T15:27:34.862Z,8.89
2023-01-30T15:30:24.771Z,8.88
2023-01-30T15:33:09.061Z,8.86
2023-01-30T15:35:35.502Z,8.91
2023-01-30T15:38:01.953Z,8.89
2023-01-30T15:40:29.748Z,8.86
2023-01-30T15:43:18.169Z,8.85
2023-01-30T15:46:01.121Z,8.84
2023-01-30T15:48:33.773Z,8.81
2023-01-30T15:51:01.618Z,8.78
2023-01-30T15:53:31.689Z,8.76
2023-01-30T15:56:01.197Z,8.70
2023-01-30T15:58:29.852Z,8.68
2023-01-30T16:00:59.585Z,8.66
2023-01-30T16:03:29.986Z,8.63
2023-01-30T16:05:58.219Z,8.62
2023-01-30T16:08:30.293Z,8.59
2023-01-30T16:10:56.935Z,8.58
2023-01-30T16:13:24.485Z,8.57
2023-01-30T16:15:58.159Z,8.55
2023-01-30T16:18:49.255Z,8.54
2023-01-30T16:21:19.885Z,8.58
2023-01-30T16:24:06.516Z,8.55
2023-01-30T16:26:35.162Z,8.58
2023-01-30T16:29:07.543Z,8.56
2023-01-30T16:31:37.458Z,8.57
2023-01-30T16:34:04.664Z,8.57
2023-01-30T16:36:38.746Z,8.56
2023-01-30T16:39:43.093Z,8.53
2023-01-30T16:42:24.137Z,8.53
2023-01-30T16:47:31.506Z,8.55
2023-01-30T16:49:57.977Z,8.53
2023-01-30T16:52:37.001Z,8.48
2023-01-30T16:55:08.133Z,8.50
2023-01-30T16:57:40.346Z,8.50
2023-01-30T17:00:31.544Z,8.50
2023-01-30T17:03:00.739Z,8.48
2023-01-30T17:05:30.230Z,8.46
2023-01-30T17:07:58.176Z,8.44
2023-01-30T17:10:40.015Z,8.36
2023-01-30T17:13:31.936Z,8.31
2023-01-30T17:16:36.507Z,8.26
2023-01-30T17:19:06.167Z,8.26
2023-01-30T17:21:45.122Z,8.18
2023-01-30T17:24:15.591Z,8.15
2023-01-30T17:26:58.831Z,8.09
2023-01-30T17:29:42.016Z,8.10
2023-01-30T17:32:13.337Z,8.09
2023-01-30T17:34:43.555Z,8.04
2023-01-30T17:37:15.321Z,7.95
2023-01-30T17:39:41.752Z,7.89
2023-01-30T17:42:13.482Z,7.81
2023-01-30T17:44:40.700Z,7.74
2023-01-30T17:47:10.962Z,7.66
2023-01-30T17:49:37.491Z,7.62
2023-01-30T17:52:04.068Z,7.58
2023-01-30T17:54:30.514Z,7.53
2023-01-30T17:57:22.849Z,7.50
2023-01-30T17:59:49.256Z,7.50
2023-01-30T18:02:15.711Z,7.50
2023-01-30T18:04:42.148Z,7.51
2023-01-30T18:07:14.223Z,7.50
2023-01-30T18:09:40.608Z,7.54
2023-01-30T18:12:07.045Z,7.55
2023-01-30T18:14:33.462Z,7.58
2023-01-30T18:17:01.091Z,7.58
2023-01-30T18:19:29.508Z,7.61
2023-01-30T18:21:58.137Z,7.61
2023-01-30T18:24:24.737Z,7.61
2023-01-30T18:26:51.551Z,7.60
2023-01-30T18:29:24.060Z,7.59
2023-01-30T18:31:50.608Z,7.61
2023-01-30T18:34:17.134Z,7.60
2023-01-30T18:36:43.659Z,7.60
2023-01-30T18:39:12.239Z,7.60
2023-01-30T18:41:38.579Z,7.60
2023-01-30T18:44:06.442Z,7.59
2023-01-30T18:46:33.642Z,7.58
2023-01-30T18:49:00.310Z,7.59
2023-01-30T18:51:29.251Z,7.57
2023-01-30T18:54:07.740Z,7.55
2023-01-30T18:56:35.027Z,7.60
2023-01-30T18:59:04.061Z,7.59
2023-01-30T19:01:38.610Z,7.59
2023-01-30T19:04:07.643Z,7.59
2023-01-30T19:06:38.885Z,7.59
2023-01-30T19:09:06.327Z,7.56
2023-01-30T19:11:52.272Z,7.58
2023-01-30T19:14:18.869Z,7.59
2023-01-30T19:16:45.305Z,7.60
2023-01-30T19:19:11.936Z,7.58
2023-01-30T19:21:38.615Z,7.55
2023-01-30T19:24:08.193Z,7.52
2023-01-30T19:26:35.030Z,7.49
2023-01-30T19:29:01.801Z,7.44
2023-01-30T19:31:28.455Z,7.39
2023-01-30T19:33:58.279Z,7.34
2023-01-30T19:36:26.177Z,7.30
2023-01-30T19:38:52.659Z,7.29
2023-01-30T19:41:22.349Z,7.26
2023-01-30T19:43:49.153Z,7.26
2023-01-30T19:46:15.738Z,7.25
2023-01-30T19:48:43.541Z,7.24
2023-01-30T19:51:15.745Z,7.23
2023-01-30T19:53:44.563Z,7.22
2023-01-30T19:56:12.671Z,7.20
2023-01-30T19:58:40.620Z,7.19
2023-01-30T20:01:12.925Z,7.16
2023-01-30T20:03:40.616Z,7.18
2023-01-30T20:06:13.127Z,7.16
2023-01-30T20:08:39.918Z,7.18
2023-01-30T20:11:08.628Z,7.16
2023-01-30T20:13:35.709Z,7.16
2023-01-30T20:16:06.867Z,7.16
2023-01-30T20:18:35.311Z,7.19
2023-01-30T20:21:10.308Z,7.17
2023-01-30T20:23:37.378Z,7.17
2023-01-30T20:26:05.780Z,7.17
2023-01-30T20:28:33.275Z,7.17
2023-01-30T20:31:00.406Z,7.16
2023-01-30T20:33:28.940Z,7.15
2023-01-30T20:36:01.137Z,7.10
2023-01-30T20:38:31.278Z,7.09
2023-01-30T20:41:06.022Z,7.07
2023-01-30T20:43:34.177Z,7.06
2023-01-30T20:46:09.373Z,7.01
2023-01-30T20:48:36.434Z,7.01
2023-01-30T20:51:05.431Z,6.99
2023-01-30T20:53:32.299Z,6.98
2023-01-30T20:56:00.151Z,6.97
2023-01-30T20:58:28.000Z,6.97
2023-01-30T21:00:54.976Z,6.99
2023-01-30T21:03:25.387Z,6.98
2023-01-30T21:05:59.316Z,6.98
2023-01-30T21:08:26.546Z,7.01
2023-01-30T21:10:54.325Z,7.02
2023-01-30T21:13:21.427Z,7.02
2023-01-30T21:15:48.267Z,7.02
2023-01-30T21:18:14.675Z,7.03
2023-01-30T21:20:48.805Z,7.01
2023-01-30T21:23:15.534Z,7.01
2023-01-30T21:25:41.850Z,7.00
2023-01-30T21:28:08.181Z,6.98
2023-01-30T21:30:35.838Z,6.95
2023-01-30T21:33:02.235Z,6.90
2023-01-30T21:35:28.546Z,6.85
2023-01-30T21:38:13.592Z,6.81
2023-01-30T21:40:58.742Z,6.77
2023-01-30T21:43:25.116Z,6.73
2023-01-30T21:45:58.056Z,6.65
2023-01-30T21:48:24.356Z,6.68
2023-01-30T21:50:50.748Z,6.67
2023-01-30T21:53:17.131Z,6.67
2023-01-30T21:55:43.580Z,6.67
2023-01-30T21:58:09.936Z,6.66
2023-01-30T22:00:36.775Z,6.67
2023-01-30T22:03:03.314Z,6.67
2023-01-30T22:05:36.533Z,6.67
2023-01-30T22:08:04.939Z,6.68
2023-01-30T22:10:31.349Z,6.68
2023-01-30T22:12:57.700Z,6.68
2023-01-30T22:15:24.038Z,6.65
2023-01-30T22:17:50.409Z,6.65
2023-01-30T22:20:17.157Z,6.62
2023-01-30T22:22:43.479Z,6.59
2023-01-30T22:25:09.952Z,6.56
2023-01-30T22:27:36.308Z,6.51
2023-01-30T22:30:02.733Z,6.48
2023-01-30T22:32:29.180Z,6.44
2023-01-30T22:34:55.567Z,6.40
2023-01-30T22:37:21.858Z,6.38
2023-01-30T22:39:48.250Z,6.34
2023-01-30T22:42:14.804Z,6.30
2023-01-30T22:44:41.777Z,6.26
2023-01-30T22:47:08.346Z,6.23
2023-01-30T22:49:34.775Z,6.20
2023-01-30T22:52:01.702Z,6.16
2023-01-30T22:54:28.433Z,6.12
2023-01-30T22:56:54.934Z,6.07
2023-01-30T22:59:21.761Z,6.05
2023-01-30T23:01:52.767Z,6.01
2023-01-30T23:04:23.738Z,5.96
2023-01-30T23:06:53.454Z,5.95
2023-01-30T23:09:22.301Z,5.91
2023-01-30T23:12:11.046Z,5.86
2023-01-30T23:14:38.299Z,5.84
2023-01-30T23:17:26.191Z,5.81
2023-01-30T23:19:54.051Z,5.78
2023-01-30T23:22:20.619Z,5.77
2023-01-30T23:24:48.560Z,5.76
2023-01-30T23:27:15.016Z,5.76
2023-01-30T23:29:41.555Z,5.76
2023-01-30T23:32:08.029Z,5.76
2023-01-30T23:34:34.641Z,5.76
2023-01-30T23:37:00.984Z,5.78
2023-01-30T23:39:27.509Z,5.80
2023-01-30T23:41:53.886Z,5.83
2023-01-30T23:44:20.692Z,5.85
2023-01-30T23:46:47.100Z,5.87
2023-01-30T23:49:14.717Z,5.91
2023-01-30T23:51:44.216Z,5.93
2023-01-30T23:54:13.069Z,5.94
2023-01-30T23:56:43.110Z,5.94
2023-01-30T23:59:10.913Z,5.94
